createdAt,value
2018-04-27T00:00:20.725Z,0
2018-04-27T00:01:20.443Z,0
2018-04-27T00:02:20.688Z,0
2018-04-27T00:03:20.670Z,0
2018-04-27T00:04:20.377Z,0
2018-04-27T00:05:20.631Z,0
2018-04-27T00:06:20.345Z,0
2018-04-27T00:07:20.410Z,0
2018-04-27T00:08:20.579Z,0
2018-04-27T00:09:20.555Z,0
2018-04-27T00:10:20.542Z,0
2018-04-27T00:11:20.783Z,0
2018-04-27T00:12:19.969Z,0
2018-04-27T00:13:20.491Z,0
2018-04-27T00:14:20.203Z,0
2018-04-27T00:15:20.183Z,0
2018-04-27T00:16:20.699Z,0
2018-04-27T00:17:20.411Z,0
2018-04-27T00:18:20.391Z,0
2018-04-27T00:19:20.640Z,0
2018-04-27T00:20:20.631Z,0
2018-04-27T00:21:20.340Z,0
2018-04-27T00:22:20.586Z,0
2018-04-27T00:23:20.304Z,0
2018-04-27T00:24:20.022Z,0
2018-04-27T00:25:19.999Z,0
2018-04-27T00:26:20.267Z,0
2018-04-27T00:27:20.490Z,0
2018-04-27T00:28:19.675Z,0
2018-04-27T00:29:20.189Z,0
2018-04-27T00:30:19.644Z,0
2018-04-27T00:31:20.420Z,0
2018-04-27T00:32:20.183Z,0
2018-04-27T00:33:20.120Z,0
2018-04-27T00:34:19.977Z,0
2018-04-27T00:35:19.809Z,0
2018-04-27T00:36:20.352Z,0
2018-04-27T00:37:20.048Z,0
2018-04-27T00:38:19.751Z,0
2018-04-27T00:39:19.738Z,0
2018-04-27T00:40:20.247Z,0
2018-04-27T00:41:19.971Z,0
2018-04-27T00:42:19.951Z,0
2018-04-27T00:43:19.660Z,0
2018-04-27T00:44:20.178Z,0
2018-04-27T00:45:19.631Z,0
2018-04-27T00:46:19.610Z,0
2018-04-27T00:47:19.851Z,0
2018-04-27T00:48:20.038Z,0
2018-04-27T00:49:19.813Z,0
2018-04-27T00:50:19.807Z,0
2018-04-27T00:51:19.523Z,0
2018-04-27T00:52:19.495Z,0
2018-04-27T00:53:19.744Z,0
2018-04-27T00:54:19.719Z,0
2018-04-27T00:55:19.705Z,0
2018-04-27T00:56:19.411Z,0
2018-04-27T00:57:19.668Z,0
2018-04-27T00:58:19.400Z,0
2018-04-27T00:59:19.367Z,0
2018-04-27T01:00:19.610Z,0
2018-04-27T01:01:19.340Z,0
2018-04-27T01:02:19.836Z,0
2018-04-27T01:03:19.558Z,0
2018-04-27T01:04:19.277Z,0
2018-04-27T01:05:19.515Z,0
2018-04-27T01:06:19.502Z,0
2018-04-27T01:07:18.951Z,0
2018-04-27T01:08:19.471Z,0
2018-04-27T01:09:19.451Z,0
2018-04-27T01:10:19.156Z,0
2018-04-27T01:11:19.666Z,0
2018-04-27T01:12:19.647Z,0
2018-04-27T01:13:19.097Z,0
2018-04-27T01:14:19.612Z,0
2018-04-27T01:15:19.329Z,0
2018-04-27T01:16:19.047Z,0
2018-04-27T01:17:19.297Z,0
2018-04-27T01:18:18.732Z,0
2018-04-27T01:19:19.246Z,0
2018-04-27T01:20:18.968Z,0
2018-04-27T01:21:18.952Z,0
2018-04-27T01:22:19.192Z,0
2018-04-27T01:23:19.451Z,0
2018-04-27T01:24:18.894Z,0
2018-04-27T01:25:19.136Z,0
2018-04-27T01:26:19.402Z,0
2018-04-27T01:27:19.097Z,0
2018-04-27T01:28:18.825Z,0
2018-04-27T01:29:19.055Z,0
2018-04-27T01:30:18.508Z,0
2018-04-27T01:31:18.776Z,0
2018-04-27T01:32:18.731Z,0
2018-04-27T01:33:18.976Z,0
2018-04-27T01:34:18.965Z,0
2018-04-27T01:35:19.207Z,0
2018-04-27T01:36:19.202Z,0
2018-04-27T01:37:18.641Z,0
2018-04-27T01:38:18.889Z,0
2018-04-27T01:39:18.609Z,0
2018-04-27T01:40:19.118Z,0
2018-04-27T01:41:19.094Z,0
2018-04-27T01:42:18.557Z,0
2018-04-27T01:43:18.529Z,0
2018-04-27T01:44:18.242Z,0
2018-04-27T01:45:18.751Z,0
2018-04-27T01:46:18.476Z,0
2018-04-27T01:47:18.447Z,0
2018-04-27T01:48:18.168Z,0
2018-04-27T01:49:18.685Z,0
2018-04-27T01:50:18.128Z,0
2018-04-27T01:51:18.383Z,0
2018-04-27T01:52:18.355Z,0
2018-04-27T01:53:18.599Z,0
2018-04-27T01:54:18.593Z,0
2018-04-27T01:55:18.566Z,0
2018-04-27T01:56:18.551Z,0
2018-04-27T01:57:18.528Z,0
2018-04-27T01:58:18.514Z,0
2018-04-27T01:59:18.503Z,0
2018-04-27T02:00:18.465Z,0
2018-04-27T02:01:18.182Z,0
2018-04-27T02:02:18.170Z,0
2018-04-27T02:03:18.421Z,0
2018-04-27T02:04:18.134Z,0
2018-04-27T02:05:18.638Z,0
2018-04-27T02:06:18.616Z,0
2018-04-27T02:07:17.810Z,0
2018-04-27T02:08:17.781Z,0
2018-04-27T02:09:17.764Z,0
2018-04-27T02:10:17.738Z,0
2018-04-27T02:11:17.743Z,0
2018-04-27T02:12:18.237Z,0
2018-04-27T02:13:18.219Z,0
2018-04-27T02:14:17.933Z,0
2018-04-27T02:15:17.919Z,0
2018-04-27T02:16:18.156Z,0
2018-04-27T02:17:18.138Z,0
2018-04-27T02:18:18.118Z,0
2018-04-27T02:19:18.103Z,0
2018-04-27T02:20:17.814Z,0
2018-04-27T02:21:18.064Z,0
2018-04-27T02:22:18.039Z,0
2018-04-27T02:23:18.086Z,0
2018-04-27T02:24:17.477Z,0
2018-04-27T02:25:17.725Z,0
2018-04-27T02:26:18.241Z,0
2018-04-27T02:27:17.954Z,0
2018-04-27T02:28:17.948Z,0
2018-04-27T02:29:17.912Z,0
2018-04-27T02:30:17.913Z,0
2018-04-27T02:31:17.610Z,0
2018-04-27T02:32:18.119Z,0
2018-04-27T02:33:17.835Z,0
2018-04-27T02:34:17.829Z,0
2018-04-27T02:35:17.794Z,0
2018-04-27T02:36:17.768Z,0
2018-04-27T02:37:17.228Z,0
2018-04-27T02:38:17.472Z,0
2018-04-27T02:39:18.004Z,0
2018-04-27T02:40:17.965Z,0
2018-04-27T02:41:17.158Z,0
2018-04-27T02:42:17.138Z,0
2018-04-27T02:43:17.925Z,0
2018-04-27T02:44:17.355Z,0
2018-04-27T02:45:17.606Z,0
2018-04-27T02:46:17.609Z,0
2018-04-27T02:47:17.640Z,0
2018-04-27T02:48:17.219Z,0
2018-04-27T02:49:17.784Z,0
2018-04-27T02:50:17.501Z,0
2018-04-27T02:51:17.754Z,0
2018-04-27T02:52:17.461Z,0
2018-04-27T02:53:17.237Z,0
2018-04-27T02:54:17.705Z,0
2018-04-27T02:55:17.350Z,0
2018-04-27T02:56:17.221Z,0
2018-04-27T02:57:17.112Z,0
2018-04-27T02:58:17.140Z,0
2018-04-27T02:59:17.273Z,0
2018-04-27T03:00:17.324Z,0
2018-04-27T03:01:17.285Z,0
2018-04-27T03:02:17.268Z,0
2018-04-27T03:03:17.532Z,0
2018-04-27T03:04:16.975Z,0
2018-04-27T03:05:17.222Z,0
2018-04-27T03:06:16.931Z,0
2018-04-27T03:07:17.175Z,0
2018-04-27T03:08:17.156Z,0
2018-04-27T03:09:17.161Z,0
2018-04-27T03:10:17.380Z,0
2018-04-27T03:11:17.095Z,0
2018-04-27T03:12:17.084Z,0
2018-04-27T03:13:17.076Z,0
2018-04-27T03:14:16.793Z,0
2018-04-27T03:15:17.299Z,0
2018-04-27T03:16:16.464Z,0
2018-04-27T03:17:16.993Z,0
2018-04-27T03:18:16.963Z,0
2018-04-27T03:19:17.218Z,0
2018-04-27T03:20:16.651Z,0
2018-04-27T03:21:16.892Z,0
2018-04-27T03:22:16.879Z,0
2018-04-27T03:23:16.328Z,0
2018-04-27T03:24:16.306Z,0
2018-04-27T03:25:16.830Z,0
2018-04-27T03:26:16.803Z,0
2018-04-27T03:27:16.253Z,0
2018-04-27T03:28:16.238Z,0
2018-04-27T03:29:16.752Z,0
2018-04-27T03:30:16.724Z,0
2018-04-27T03:31:16.977Z,0
2018-04-27T03:32:16.957Z,0
2018-04-27T03:33:16.683Z,0
2018-04-27T03:34:17.063Z,0
2018-04-27T03:35:16.365Z,0
2018-04-27T03:36:16.083Z,0
2018-04-27T03:37:16.859Z,0
2018-04-27T03:38:16.307Z,0
2018-04-27T03:39:16.815Z,4
2018-04-27T03:40:16.269Z,4
2018-04-27T03:41:16.508Z,0
2018-04-27T03:42:16.500Z,0
2018-04-27T03:43:16.202Z,4
2018-04-27T03:44:16.465Z,4
2018-04-27T03:45:16.473Z,4
2018-04-27T03:46:15.880Z,4
2018-04-27T03:47:16.394Z,8
2018-04-27T03:48:16.116Z,4
2018-04-27T03:49:16.092Z,8
2018-04-27T03:50:16.341Z,8
2018-04-27T03:51:16.312Z,12
2018-04-27T03:52:16.302Z,12
2018-04-27T03:53:16.013Z,16
2018-04-27T03:54:15.989Z,16
2018-04-27T03:55:15.978Z,20
2018-04-27T03:56:16.222Z,20
2018-04-27T03:57:16.210Z,28
2018-04-27T03:58:15.913Z,28
2018-04-27T03:59:15.631Z,32
2018-04-27T04:00:16.142Z,40
2018-04-27T04:01:16.294Z,40
2018-04-27T04:02:16.108Z,48
2018-04-27T04:03:15.822Z,52
2018-04-27T04:04:16.327Z,60
2018-04-27T04:05:16.105Z,68
2018-04-27T04:06:15.500Z,72
2018-04-27T04:07:15.999Z,80
2018-04-27T04:08:15.985Z,92
2018-04-27T04:09:15.965Z,96
2018-04-27T04:10:15.674Z,108
2018-04-27T04:11:15.659Z,116
2018-04-27T04:12:15.905Z,124
2018-04-27T04:13:15.887Z,132
2018-04-27T04:14:16.130Z,144
2018-04-27T04:15:16.110Z,156
2018-04-27T04:16:15.563Z,164
2018-04-27T04:17:15.540Z,176
2018-04-27T04:18:15.795Z,188
2018-04-27T04:19:15.510Z,204
2018-04-27T04:20:16.030Z,212
2018-04-27T04:21:15.727Z,224
2018-04-27T04:22:15.444Z,236
2018-04-27T04:23:15.431Z,252
2018-04-27T04:24:15.671Z,264
2018-04-27T04:25:15.651Z,284
2018-04-27T04:26:15.366Z,296
2018-04-27T04:27:15.345Z,316
2018-04-27T04:28:15.601Z,332
2018-04-27T04:29:15.306Z,352
2018-04-27T04:30:15.555Z,372
2018-04-27T04:31:15.270Z,400
2018-04-27T04:32:15.876Z,424
2018-04-27T04:33:15.786Z,444
2018-04-27T04:34:15.751Z,464
2018-04-27T04:35:15.459Z,484
2018-04-27T04:36:15.447Z,500
2018-04-27T04:37:15.153Z,520
2018-04-27T04:38:15.453Z,544
2018-04-27T04:39:15.121Z,576
2018-04-27T04:40:15.092Z,616
2018-04-27T04:41:15.091Z,672
2018-04-27T04:42:15.054Z,736
2018-04-27T04:43:15.042Z,808
2018-04-27T04:44:15.291Z,880
2018-04-27T04:45:15.453Z,944
2018-04-27T04:46:14.977Z,1004
2018-04-27T04:47:15.220Z,1056
2018-04-27T04:48:14.872Z,1092
2018-04-27T04:49:15.445Z,1124
2018-04-27T04:50:14.637Z,1140
2018-04-27T04:51:14.880Z,1148
2018-04-27T04:52:14.867Z,1144
2018-04-27T04:53:14.839Z,1124
2018-04-27T04:54:14.821Z,1088
2018-04-27T04:55:15.069Z,1064
2018-04-27T04:56:14.783Z,1056
2018-04-27T04:57:15.028Z,1048
2018-04-27T04:58:15.008Z,1044
2018-04-27T04:59:14.987Z,1040
2018-04-27T05:00:14.703Z,1060
2018-04-27T05:01:14.695Z,1080
2018-04-27T05:02:14.668Z,1100
2018-04-27T05:03:14.906Z,1136
2018-04-27T05:04:14.622Z,1196
2018-04-27T05:05:14.884Z,1268
2018-04-27T05:06:14.597Z,1328
2018-04-27T05:07:15.099Z,1372
2018-04-27T05:08:14.830Z,1384
2018-04-27T05:09:14.530Z,1384
2018-04-27T05:10:14.248Z,1396
2018-04-27T05:11:14.768Z,1392
2018-04-27T05:12:14.475Z,1388
2018-04-27T05:13:14.993Z,1404
2018-04-27T05:14:14.435Z,1416
2018-04-27T05:15:14.690Z,1416
2018-04-27T05:16:14.666Z,1408
2018-04-27T05:17:14.955Z,1424
2018-04-27T05:18:14.622Z,1428
2018-04-27T05:19:14.343Z,1432
2018-04-27T05:20:14.321Z,1444
2018-04-27T05:21:14.301Z,1452
2018-04-27T05:22:14.015Z,1448
2018-04-27T05:23:14.262Z,1464
2018-04-27T05:24:14.057Z,1460
2018-04-27T05:25:14.227Z,1468
2018-04-27T05:26:14.471Z,1476
2018-04-27T05:27:14.455Z,1480
2018-04-27T05:28:14.691Z,1492
2018-04-27T05:29:13.879Z,1496
2018-04-27T05:30:13.863Z,1520
2018-04-27T05:31:14.374Z,1560
2018-04-27T05:32:14.371Z,1596
2018-04-27T05:33:14.079Z,1656
2018-04-27T05:34:14.583Z,1732
2018-04-27T05:35:14.297Z,1764
2018-04-27T05:36:14.015Z,1872
2018-04-27T05:37:14.528Z,1944
2018-04-27T05:38:14.261Z,1988
2018-04-27T05:39:14.223Z,1996
2018-04-27T05:40:13.936Z,2036
2018-04-27T05:41:14.446Z,2028
2018-04-27T05:42:14.170Z,2040
2018-04-27T05:43:14.143Z,2072
2018-04-27T05:44:13.868Z,2120
2018-04-27T05:45:13.853Z,2152
2018-04-27T05:46:13.830Z,2148
2018-04-27T05:47:13.810Z,2144
2018-04-27T05:48:14.165Z,2152
2018-04-27T05:49:14.032Z,2132
2018-04-27T05:50:13.757Z,2148
2018-04-27T05:51:13.996Z,2140
2018-04-27T05:52:13.718Z,2108
2018-04-27T05:53:13.955Z,2160
2018-04-27T05:54:13.947Z,2200
2018-04-27T05:55:13.928Z,2212
2018-04-27T05:56:14.169Z,2200
2018-04-27T05:57:13.355Z,2204
2018-04-27T05:58:13.597Z,2192
2018-04-27T05:59:14.119Z,2216
2018-04-27T06:00:13.565Z,2212
2018-04-27T06:01:13.815Z,2224
2018-04-27T06:02:14.063Z,2228
2018-04-27T06:03:13.508Z,2236
2018-04-27T06:04:13.486Z,2252
2018-04-27T06:05:13.732Z,2280
2018-04-27T06:06:13.990Z,2328
2018-04-27T06:07:13.435Z,2324
2018-04-27T06:08:13.696Z,2304
2018-04-27T06:09:13.942Z,2272
2018-04-27T06:10:13.816Z,2296
2018-04-27T06:11:13.366Z,2308
2018-04-27T06:12:13.609Z,2320
2018-04-27T06:13:13.590Z,2324
2018-04-27T06:14:13.594Z,2364
2018-04-27T06:15:13.833Z,2396
2018-04-27T06:16:14.021Z,2440
2018-04-27T06:17:13.520Z,2464
2018-04-27T06:18:13.766Z,2488
2018-04-27T06:19:13.220Z,2524
2018-04-27T06:20:13.742Z,2572
2018-04-27T06:21:13.447Z,2584
2018-04-27T06:22:13.169Z,2584
2018-04-27T06:23:13.410Z,2576
2018-04-27T06:24:13.127Z,2592
2018-04-27T06:25:13.377Z,2664
2018-04-27T06:26:13.360Z,2692
2018-04-27T06:27:13.073Z,2712
2018-04-27T06:28:13.327Z,2744
2018-04-27T06:29:13.568Z,2836
2018-04-27T06:30:13.549Z,2908
2018-04-27T06:31:13.536Z,2920
2018-04-27T06:32:12.987Z,2896
2018-04-27T06:33:13.508Z,2908
2018-04-27T06:34:12.952Z,2964
2018-04-27T06:35:13.597Z,2976
2018-04-27T06:36:13.185Z,2944
2018-04-27T06:37:12.903Z,3012
2018-04-27T06:38:13.150Z,3028
2018-04-27T06:39:12.596Z,3064
2018-04-27T06:40:12.848Z,3088
2018-04-27T06:41:13.092Z,3160
2018-04-27T06:42:12.813Z,3264
2018-04-27T06:43:13.103Z,3336
2018-04-27T06:44:13.043Z,3388
2018-04-27T06:45:13.031Z,3424
2018-04-27T06:46:12.486Z,3460
2018-04-27T06:47:12.998Z,3448
2018-04-27T06:48:12.704Z,3524
2018-04-27T06:49:12.964Z,3536
2018-04-27T06:50:12.942Z,3556
2018-04-27T06:51:13.196Z,3596
2018-04-27T06:52:12.644Z,3620
2018-04-27T06:53:12.631Z,3640
2018-04-27T06:54:12.876Z,3676
2018-04-27T06:55:12.582Z,3732
2018-04-27T06:56:12.578Z,3784
2018-04-27T06:57:12.557Z,3820
2018-04-27T06:58:12.588Z,3852
2018-04-27T06:59:13.380Z,3868
2018-04-27T07:00:12.768Z,3872
2018-04-27T07:01:12.499Z,3924
2018-04-27T07:02:12.743Z,3944
2018-04-27T07:03:12.459Z,3984
2018-04-27T07:04:12.966Z,3920
2018-04-27T07:05:12.499Z,3804
2018-04-27T07:06:12.669Z,3724
2018-04-27T07:07:12.397Z,3628
2018-04-27T07:08:12.377Z,3596
2018-04-27T07:09:12.355Z,3612
2018-04-27T07:10:12.079Z,3668
2018-04-27T07:11:12.328Z,3716
2018-04-27T07:12:12.570Z,3756
2018-04-27T07:13:12.077Z,3792
2018-04-27T07:14:12.546Z,3812
2018-04-27T07:15:12.524Z,3728
2018-04-27T07:16:12.254Z,3696
2018-04-27T07:17:12.698Z,3780
2018-04-27T07:18:12.477Z,3804
2018-04-27T07:19:12.466Z,3780
2018-04-27T07:20:12.179Z,3736
2018-04-27T07:21:12.433Z,3724
2018-04-27T07:22:12.417Z,3716
2018-04-27T07:23:12.409Z,3676
2018-04-27T07:24:12.119Z,3744
2018-04-27T07:25:12.390Z,3844
2018-04-27T07:26:12.351Z,3912
2018-04-27T07:27:12.597Z,3940
2018-04-27T07:28:12.335Z,3880
2018-04-27T07:29:12.033Z,3816
2018-04-27T07:30:12.552Z,3892
2018-04-27T07:31:11.748Z,3960
2018-04-27T07:32:12.266Z,4056
2018-04-27T07:33:12.244Z,4220
2018-04-27T07:34:12.724Z,4444
2018-04-27T07:35:12.208Z,4608
2018-04-27T07:36:11.659Z,4724
2018-04-27T07:37:12.178Z,4776
2018-04-27T07:38:11.895Z,5044
2018-04-27T07:39:11.875Z,5196
2018-04-27T07:40:11.590Z,5220
2018-04-27T07:41:11.854Z,5292
2018-04-27T07:42:11.838Z,5392
2018-04-27T07:43:11.814Z,5472
2018-04-27T07:44:11.542Z,5860
2018-04-27T07:45:12.193Z,6200
2018-04-27T07:46:12.029Z,6328
2018-04-27T07:47:11.756Z,6696
2018-04-27T07:48:11.740Z,7148
2018-04-27T07:49:11.459Z,7776
2018-04-27T07:50:11.983Z,8340
2018-04-27T07:51:11.691Z,8724
2018-04-27T07:52:11.949Z,9084
2018-04-27T07:53:11.933Z,9560
2018-04-27T07:54:12.184Z,9972
2018-04-27T07:55:11.633Z,10196
2018-04-27T07:56:11.362Z,10256
2018-04-27T07:57:11.869Z,10128
2018-04-27T07:58:11.593Z,10056
2018-04-27T07:59:11.840Z,10196
2018-04-27T08:00:12.102Z,10352
2018-04-27T08:01:11.544Z,10484
2018-04-27T08:02:11.854Z,10540
2018-04-27T08:03:11.782Z,11136
2018-04-27T08:04:11.237Z,11452
2018-04-27T08:05:11.484Z,11968
2018-04-27T08:06:11.472Z,12372
2018-04-27T08:07:12.255Z,12616
2018-04-27T08:08:11.715Z,12756
2018-04-27T08:09:11.960Z,12864
2018-04-27T08:10:11.947Z,13780
2018-04-27T08:11:11.674Z,14296
2018-04-27T08:12:11.664Z,14808
2018-04-27T08:13:11.376Z,14444
2018-04-27T08:14:11.714Z,14448
2018-04-27T08:15:11.358Z,14252
2018-04-27T08:16:11.602Z,14448
2018-04-27T08:17:11.604Z,16416
2018-04-27T08:18:11.579Z,16992
2018-04-27T08:19:11.843Z,16832
2018-04-27T08:20:11.290Z,16064
2018-04-27T08:21:11.275Z,14188
2018-04-27T08:22:11.280Z,14800
2018-04-27T08:23:11.792Z,15080
2018-04-27T08:24:11.517Z,14452
2018-04-27T08:25:11.239Z,14812
2018-04-27T08:26:11.500Z,14024
2018-04-27T08:27:11.486Z,13524
2018-04-27T08:28:10.933Z,13324
2018-04-27T08:29:10.975Z,12836
2018-04-27T08:30:11.556Z,12816
2018-04-27T08:31:11.432Z,12916
2018-04-27T08:32:11.157Z,12748
2018-04-27T08:33:11.669Z,13168
2018-04-27T08:34:11.134Z,12204
2018-04-27T08:35:11.118Z,11684
2018-04-27T08:36:11.563Z,11852
2018-04-27T08:37:11.625Z,12124
2018-04-27T08:38:11.346Z,12392
2018-04-27T08:39:11.076Z,12532
2018-04-27T08:40:10.796Z,12916
2018-04-27T08:41:11.587Z,12588
2018-04-27T08:42:11.040Z,12480
2018-04-27T08:43:11.305Z,12340
2018-04-27T08:44:11.033Z,12552
2018-04-27T08:45:11.538Z,12240
2018-04-27T08:46:11.462Z,12476
2018-04-27T08:47:11.249Z,12556
2018-04-27T08:48:10.973Z,12928
2018-04-27T08:49:11.165Z,13844
2018-04-27T08:50:11.215Z,13560
2018-04-27T08:51:11.215Z,13252
2018-04-27T08:52:11.200Z,13040
2018-04-27T08:53:10.921Z,12740
2018-04-27T08:54:11.436Z,14100
2018-04-27T08:55:10.897Z,15224
2018-04-27T08:56:11.156Z,14900
2018-04-27T08:57:11.137Z,13864
2018-04-27T08:58:11.132Z,16376
2018-04-27T08:59:11.121Z,15660
2018-04-27T09:00:11.105Z,12724
2018-04-27T09:01:10.566Z,12256
2018-04-27T09:02:10.565Z,12300
2018-04-27T09:03:11.089Z,11888
2018-04-27T09:04:11.344Z,12344
2018-04-27T09:05:11.061Z,12604
2018-04-27T09:06:11.047Z,12620
2018-04-27T09:07:10.775Z,13092
2018-04-27T09:08:11.284Z,13512
2018-04-27T09:09:10.748Z,13980
2018-04-27T09:10:10.994Z,14120
2018-04-27T09:11:10.732Z,14136
2018-04-27T09:12:10.978Z,14080
2018-04-27T09:13:10.707Z,14072
2018-04-27T09:14:10.686Z,14212
2018-04-27T09:15:10.682Z,14228
2018-04-27T09:16:10.675Z,14348
2018-04-27T09:17:10.657Z,15188
2018-04-27T09:18:10.650Z,14720
2018-04-27T09:19:10.643Z,14556
2018-04-27T09:20:10.625Z,16608
2018-04-27T09:21:10.887Z,17952
2018-04-27T09:22:10.610Z,17600
2018-04-27T09:23:10.856Z,15936
2018-04-27T09:24:10.321Z,16576
2018-04-27T09:25:10.843Z,14252
2018-04-27T09:26:10.565Z,14268
2018-04-27T09:27:10.823Z,14488
2018-04-27T09:28:10.808Z,14764
2018-04-27T09:29:10.268Z,14372
2018-04-27T09:30:11.062Z,13928
2018-04-27T09:31:10.524Z,13948
2018-04-27T09:32:10.773Z,14300
2018-04-27T09:33:10.495Z,14244
2018-04-27T09:34:10.754Z,14544
2018-04-27T09:35:10.543Z,14832
2018-04-27T09:36:10.724Z,14888
2018-04-27T09:37:10.720Z,15616
2018-04-27T09:38:10.443Z,15492
2018-04-27T09:39:10.437Z,14728
2018-04-27T09:40:10.721Z,14584
2018-04-27T09:41:10.872Z,14748
2018-04-27T09:42:10.403Z,14804
2018-04-27T09:43:10.391Z,14968
2018-04-27T09:44:10.386Z,15148
2018-04-27T09:45:10.652Z,15200
2018-04-27T09:46:10.640Z,15024
2018-04-27T09:47:10.620Z,14848
2018-04-27T09:48:10.359Z,14888
2018-04-27T09:49:10.598Z,15112
2018-04-27T09:50:10.071Z,15196
2018-04-27T09:51:10.588Z,14708
2018-04-27T09:52:10.320Z,14464
2018-04-27T09:53:10.296Z,14180
2018-04-27T09:54:10.553Z,14312
2018-04-27T09:55:10.016Z,14124
2018-04-27T09:56:10.542Z,15576
2018-04-27T09:57:10.525Z,16672
2018-04-27T09:58:10.515Z,16864
2018-04-27T09:59:10.509Z,16640
2018-04-27T10:00:10.502Z,16704
2018-04-27T10:01:09.955Z,16704
2018-04-27T10:02:10.481Z,16704
2018-04-27T10:03:10.201Z,16224
2018-04-27T10:04:10.200Z,15812
2018-04-27T10:05:09.916Z,15892
2018-04-27T10:06:10.435Z,16480
2018-04-27T10:07:10.165Z,16768
2018-04-27T10:08:10.158Z,17088
2018-04-27T10:09:10.408Z,17248
2018-04-27T10:10:09.880Z,17504
2018-04-27T10:11:10.387Z,17024
2018-04-27T10:12:10.381Z,18336
2018-04-27T10:13:10.391Z,18400
2018-04-27T10:14:10.364Z,18208
2018-04-27T10:15:10.630Z,17696
2018-04-27T10:16:10.347Z,17664
2018-04-27T10:17:10.073Z,18240
2018-04-27T10:18:10.329Z,18624
2018-04-27T10:19:10.052Z,19552
2018-04-27T10:20:10.324Z,19936
2018-04-27T10:21:10.043Z,19232
2018-04-27T10:22:10.034Z,18688
2018-04-27T10:23:10.278Z,20640
2018-04-27T10:24:10.580Z,22464
2018-04-27T10:25:10.298Z,21472
2018-04-27T10:26:10.513Z,20288
2018-04-27T10:27:10.250Z,21152
2018-04-27T10:28:09.977Z,22592
2018-04-27T10:29:10.262Z,23168
2018-04-27T10:30:09.963Z,22912
2018-04-27T10:31:10.077Z,19584
2018-04-27T10:32:10.208Z,22400
2018-04-27T10:33:09.927Z,24992
2018-04-27T10:34:10.409Z,21792
2018-04-27T10:35:10.267Z,22272
2018-04-27T10:36:10.171Z,23008
2018-04-27T10:37:10.158Z,26464
2018-04-27T10:38:09.902Z,24992
2018-04-27T10:39:10.156Z,21568
2018-04-27T10:40:09.875Z,21184
2018-04-27T10:41:10.392Z,23136
2018-04-27T10:42:09.591Z,24736
2018-04-27T10:43:10.292Z,19520
2018-04-27T10:44:10.105Z,26464
2018-04-27T10:45:10.100Z,28960
2018-04-27T10:46:09.820Z,30528
2018-04-27T10:47:09.821Z,25568
2018-04-27T10:48:09.825Z,19584
2018-04-27T10:49:10.011Z,18400
2018-04-27T10:50:09.874Z,28576
2018-04-27T10:51:10.046Z,18624
2018-04-27T10:52:09.779Z,25920
2018-04-27T10:53:09.512Z,25216
2018-04-27T10:54:10.296Z,27968
2018-04-27T10:55:09.761Z,23360
2018-04-27T10:56:10.252Z,23520
2018-04-27T10:57:09.736Z,25216
2018-04-27T10:58:10.281Z,18496
2018-04-27T10:59:09.993Z,17984
2018-04-27T11:00:10.264Z,20512
2018-04-27T11:01:09.976Z,24544
2018-04-27T11:02:09.979Z,21984
2018-04-27T11:03:09.973Z,20928
2018-04-27T11:04:10.230Z,21824
2018-04-27T11:05:09.416Z,27648
2018-04-27T11:06:09.675Z,20064
2018-04-27T11:07:09.942Z,19456
2018-04-27T11:08:09.662Z,19776
2018-04-27T11:09:09.658Z,20128
2018-04-27T11:10:09.913Z,20416
2018-04-27T11:11:09.960Z,41664
2018-04-27T11:12:09.634Z,31136
2018-04-27T11:13:09.895Z,39808
2018-04-27T11:14:09.630Z,46368
2018-04-27T11:15:09.625Z,37248
2018-04-27T11:16:09.878Z,28768
2018-04-27T11:17:10.194Z,19040
2018-04-27T11:18:09.866Z,18368
2018-04-27T11:19:09.874Z,19264
2018-04-27T11:20:09.656Z,19840
2018-04-27T11:21:09.588Z,20448
2018-04-27T11:22:09.307Z,24672
2018-04-27T11:23:09.564Z,31488
2018-04-27T11:24:10.107Z,30560
2018-04-27T11:25:09.827Z,24992
2018-04-27T11:26:09.672Z,17984
2018-04-27T11:27:09.818Z,19424
2018-04-27T11:28:10.068Z,21536
2018-04-27T11:29:09.794Z,18016
2018-04-27T11:30:09.804Z,19776
2018-04-27T11:31:09.520Z,34400
2018-04-27T11:32:09.515Z,39904
2018-04-27T11:33:09.783Z,33952
2018-04-27T11:34:10.034Z,42176
2018-04-27T11:35:09.665Z,52832
2018-04-27T11:36:09.810Z,45632
2018-04-27T11:37:10.034Z,21664
2018-04-27T11:38:09.752Z,21664
2018-04-27T11:39:09.476Z,32608
2018-04-27T11:40:09.731Z,31296
2018-04-27T11:41:09.792Z,37952
2018-04-27T11:42:09.464Z,66880
2018-04-27T11:43:09.190Z,69216
2018-04-27T11:44:09.979Z,34624
2018-04-27T11:45:09.179Z,58688
2018-04-27T11:46:09.438Z,70496
2018-04-27T11:47:09.699Z,70336
2018-04-27T11:48:09.440Z,58432
2018-04-27T11:49:09.431Z,64320
2018-04-27T11:50:09.430Z,50016
2018-04-27T11:51:09.699Z,61248
2018-04-27T11:52:09.960Z,61728
2018-04-27T11:53:09.441Z,67296
2018-04-27T11:54:09.415Z,72256
2018-04-27T11:55:09.410Z,74912
2018-04-27T11:56:09.881Z,82272
2018-04-27T11:57:09.685Z,37536
2018-04-27T11:58:09.679Z,30592
2018-04-27T11:59:09.664Z,36096
2018-04-27T12:00:09.664Z,27104
2018-04-27T12:01:09.715Z,63296
2018-04-27T12:02:09.132Z,102336
2018-04-27T12:03:09.660Z,90880
2018-04-27T12:04:09.395Z,90912
2018-04-27T12:05:09.936Z,102816
2018-04-27T12:06:09.125Z,92192
2018-04-27T12:07:09.661Z,21088
2018-04-27T12:08:09.400Z,24480
2018-04-27T12:09:09.125Z,59200
2018-04-27T12:10:09.131Z,77984
2018-04-27T12:11:09.405Z,95168
2018-04-27T12:12:09.954Z,73024
2018-04-27T12:13:09.914Z,78272
2018-04-27T12:14:09.653Z,96864
2018-04-27T12:15:09.390Z,53824
2018-04-27T12:16:09.389Z,53984
2018-04-27T12:17:09.391Z,65248
2018-04-27T12:18:09.670Z,32864
2018-04-27T12:19:09.673Z,48512
2018-04-27T12:20:09.663Z,55072
2018-04-27T12:21:09.689Z,43392
2018-04-27T12:22:09.140Z,25824
2018-04-27T12:23:09.937Z,24928
2018-04-27T12:24:09.668Z,32960
2018-04-27T12:25:09.438Z,69280
2018-04-27T12:26:09.683Z,29920
2018-04-27T12:27:09.677Z,26080
2018-04-27T12:28:09.484Z,30112
2018-04-27T12:29:09.941Z,51008
2018-04-27T12:30:09.679Z,41856
2018-04-27T12:31:09.495Z,41760
2018-04-27T12:32:09.690Z,31040
2018-04-27T12:33:09.832Z,32992
2018-04-27T12:34:09.710Z,44960
2018-04-27T12:35:09.894Z,37408
2018-04-27T12:36:09.208Z,39328
2018-04-27T12:37:10.019Z,62272
2018-04-27T12:38:09.952Z,51648
2018-04-27T12:39:09.952Z,42112
2018-04-27T12:40:09.692Z,26016
2018-04-27T12:41:09.420Z,23040
2018-04-27T12:42:09.685Z,23104
2018-04-27T12:43:09.953Z,25888
2018-04-27T12:44:09.689Z,27232
2018-04-27T12:45:09.591Z,34336
2018-04-27T12:46:09.411Z,28288
2018-04-27T12:47:09.412Z,38400
2018-04-27T12:48:09.683Z,35360
2018-04-27T12:49:10.139Z,65088
2018-04-27T12:50:09.667Z,33792
2018-04-27T12:51:09.403Z,24864
2018-04-27T12:52:09.423Z,90688
2018-04-27T12:53:09.407Z,75200
2018-04-27T12:54:09.404Z,32416
2018-04-27T12:55:09.669Z,55680
2018-04-27T12:56:09.411Z,88000
2018-04-27T12:57:09.671Z,44736
2018-04-27T12:58:09.668Z,92224
2018-04-27T12:59:09.926Z,52288
2018-04-27T13:00:09.395Z,31648
2018-04-27T13:01:09.932Z,71392
2018-04-27T13:02:09.656Z,28928
2018-04-27T13:03:09.391Z,48448
2018-04-27T13:04:09.650Z,23552
2018-04-27T13:05:09.115Z,55168
2018-04-27T13:06:09.648Z,35808
2018-04-27T13:07:09.384Z,37664
2018-04-27T13:08:10.001Z,40864
2018-04-27T13:09:09.380Z,52064
2018-04-27T13:10:09.652Z,85056
2018-04-27T13:11:09.640Z,86240
2018-04-27T13:12:09.378Z,45280
2018-04-27T13:13:09.364Z,65536
2018-04-27T13:14:09.636Z,23360
2018-04-27T13:15:09.909Z,19200
2018-04-27T13:16:09.365Z,64608
2018-04-27T13:17:09.943Z,71104
2018-04-27T13:18:09.362Z,74208
2018-04-27T13:19:09.498Z,82240
2018-04-27T13:20:09.640Z,49344
2018-04-27T13:21:09.897Z,88640
2018-04-27T13:22:09.635Z,87616
2018-04-27T13:23:09.358Z,89216
2018-04-27T13:24:09.627Z,71584
2018-04-27T13:25:09.631Z,28896
2018-04-27T13:26:09.907Z,20064
2018-04-27T13:27:09.377Z,29280
2018-04-27T13:28:09.566Z,41856
2018-04-27T13:29:09.358Z,82688
2018-04-27T13:30:09.899Z,72768
2018-04-27T13:31:09.377Z,65504
2018-04-27T13:32:09.367Z,30400